sensor_id;sensor_type;location;lat;lon;timestamp;temperature;humidity
23579;DHT22;11967;50.852;4.400;2023-12-07T00:01:14;8.00;99.90
23579;DHT22;11967;50.852;4.400;2023-12-07T00:03:40;7.90;99.90
23579;DHT22;11967;50.852;4.400;2023-12-07T00:06:05;8.00;99.90
23579;DHT22;11967;50.852;4.400;2023-12-07T00:08:31;8.00;99.90
23579;DHT22;11967;50.852;4.400;2023-12-07T00:10:57;7.80;99.90
23579;DHT22;11967;50.852;4.400;2023-12-07T00:13:22;7.70;99.90
23579;DHT22;11967;50.852;4.400;2023-12-07T00:15:48;7.70;99.90
23579;DHT22;11967;50.852;4.400;2023-12-07T00:18:13;7.60;99.90
23579;DHT22;11967;50.852;4.400;2023-12-07T00:20:39;7.50;99.90
23579;DHT22;11967;50.852;4.400;2023-12-07T00:23:05;7.60;99.90
23579;DHT22;11967;50.852;4.400;2023-12-07T00:25:31;7.50;99.90
23579;DHT22;11967;50.852;4.400;2023-12-07T00:27:57;7.60;99.90
23579;DHT22;11967;50.852;4.400;2023-12-07T00:30:22;7.70;99.90
23579;DHT22;11967;50.852;4.400;2023-12-07T00:32:48;7.80;99.90
23579;DHT22;11967;50.852;4.400;2023-12-07T00:35:14;7.70;99.90
23579;DHT22;11967;50.852;4.400;2023-12-07T00:37:41;7.60;99.90
23579;DHT22;11967;50.852;4.400;2023-12-07T00:40:07;7.60;99.90
23579;DHT22;11967;50.852;4.400;2023-12-07T00:42:33;7.50;99.90
23579;DHT22;11967;50.852;4.400;2023-12-07T00:45:00;7.60;99.90
23579;DHT22;11967;50.852;4.400;2023-12-07T00:47:25;7.50;99.90
23579;DHT22;11967;50.852;4.400;2023-12-07T00:49:51;7.40;99.90
23579;DHT22;11967;50.852;4.400;2023-12-07T00:52:17;7.50;99.90
23579;DHT22;11967;50.852;4.400;2023-12-07T00:54:43;7.50;99.90
23579;DHT22;11967;50.852;4.400;2023-12-07T00:57:09;7.40;99.90
23579;DHT22;11967;50.852;4.400;2023-12-07T00:59:35;7.50;99.90
23579;DHT22;11967;50.852;4.400;2023-12-07T01:02:11;7.60;99.90
23579;DHT22;11967;50.852;4.400;2023-12-07T01:04:36;7.50;99.90
23579;DHT22;11967;50.852;4.400;2023-12-07T01:07:02;7.60;99.90
23579;DHT22;11967;50.852;4.400;2023-12-07T01:09:29;7.70;99.90
23579;DHT22;11967;50.852;4.400;2023-12-07T01:11:55;7.70;99.90
23579;DHT22;11967;50.852;4.400;2023-12-07T01:14:20;7.80;99.90
23579;DHT22;11967;50.852;4.400;2023-12-07T01:16:47;7.80;99.90
23579;DHT22;11967;50.852;4.400;2023-12-07T01:19:12;7.90;99.90
23579;DHT22;11967;50.852;4.400;2023-12-07T01:21:43;7.80;99.90
23579;DHT22;11967;50.852;4.400;2023-12-07T01:24:09;7.70;99.90
23579;DHT22;11967;50.852;4.400;2023-12-07T01:26:34;7.80;99.90
23579;DHT22;11967;50.852;4.400;2023-12-07T01:29:01;7.70;99.90
23579;DHT22;11967;50.852;4.400;2023-12-07T01:31:26;7.50;99.90
23579;DHT22;11967;50.852;4.400;2023-12-07T01:33:52;7.30;99.90
23579;DHT22;11967;50.852;4.400;2023-12-07T01:36:18;7.50;99.90
23579;DHT22;11967;50.852;4.400;2023-12-07T01:38:43;7.50;99.90
23579;DHT22;11967;50.852;4.400;2023-12-07T01:41:09;7.50;99.90
23579;DHT22;11967;50.852;4.400;2023-12-07T01:43:35;7.50;99.90
23579;DHT22;11967;50.852;4.400;2023-12-07T01:46:01;7.50;99.90
23579;DHT22;11967;50.852;4.400;2023-12-07T01:48:28;7.50;99.90
23579;DHT22;11967;50.852;4.400;2023-12-07T01:50:56;7.50;99.90
23579;DHT22;11967;50.852;4.400;2023-12-07T01:53:23;7.50;99.90
23579;DHT22;11967;50.852;4.400;2023-12-07T01:55:51;7.40;99.90
23579;DHT22;11967;50.852;4.400;2023-12-07T01:58:18;7.40;99.90
23579;DHT22;11967;50.852;4.400;2023-12-07T02:00:45;7.50;99.90
23579;DHT22;11967;50.852;4.400;2023-12-07T02:03:12;7.50;99.90
23579;DHT22;11967;50.852;4.400;2023-12-07T02:05:42;7.50;99.90
23579;DHT22;11967;50.852;4.400;2023-12-07T02:08:08;7.40;99.90
23579;DHT22;11967;50.852;4.400;2023-12-07T02:10:34;7.30;99.90
23579;DHT22;11967;50.852;4.400;2023-12-07T02:13:01;7.20;99.90
23579;DHT22;11967;50.852;4.400;2023-12-07T02:15:27;7.10;99.90
23579;DHT22;11967;50.852;4.400;2023-12-07T02:21:00;7.20;99.90
23579;DHT22;11967;50.852;4.400;2023-12-07T02:23:29;7.20;99.90
23579;DHT22;11967;50.852;4.400;2023-12-07T02:25:57;7.30;99.90
23579;DHT22;11967;50.852;4.400;2023-12-07T02:28:27;7.20;99.90
23579;DHT22;11967;50.852;4.400;2023-12-07T02:30:53;7.10;99.90
23579;DHT22;11967;50.852;4.400;2023-12-07T02:33:19;7.10;99.90
23579;DHT22;11967;50.852;4.400;2023-12-07T02:35:44;7.20;99.90
23579;DHT22;11967;50.852;4.400;2023-12-07T02:38:10;7.20;99.90
23579;DHT22;11967;50.852;4.400;2023-12-07T02:40:37;7.10;99.90
23579;DHT22;11967;50.852;4.400;2023-12-07T02:43:04;7.10;99.90
23579;DHT22;11967;50.852;4.400;2023-12-07T02:45:30;7.20;99.90
23579;DHT22;11967;50.852;4.400;2023-12-07T02:47:57;7.30;99.90
23579;DHT22;11967;50.852;4.400;2023-12-07T02:50:24;7.40;99.90
23579;DHT22;11967;50.852;4.400;2023-12-07T02:52:49;7.40;99.90
23579;DHT22;11967;50.852;4.400;2023-12-07T02:55:15;7.40;99.90
23579;DHT22;11967;50.852;4.400;2023-12-07T02:57:41;7.40;99.90
23579;DHT22;11967;50.852;4.400;2023-12-07T03:00:07;7.40;99.90
23579;DHT22;11967;50.852;4.400;2023-12-07T03:02:38;7.50;99.90
23579;DHT22;11967;50.852;4.400;2023-12-07T03:05:04;7.60;99.90
23579;DHT22;11967;50.852;4.400;2023-12-07T03:07:30;7.60;99.90
23579;DHT22;11967;50.852;4.400;2023-12-07T03:09:56;7.60;99.90
23579;DHT22;11967;50.852;4.400;2023-12-07T03:12:22;7.50;99.90
23579;DHT22;11967;50.852;4.400;2023-12-07T03:14:48;7.50;99.90
23579;DHT22;11967;50.852;4.400;2023-12-07T03:17:14;7.40;99.90
23579;DHT22;11967;50.852;4.400;2023-12-07T03:19:40;7.40;99.90
23579;DHT22;11967;50.852;4.400;2023-12-07T03:22:07;7.40;99.90
23579;DHT22;11967;50.852;4.400;2023-12-07T03:24:36;7.40;99.90
23579;DHT22;11967;50.852;4.400;2023-12-07T03:27:02;7.50;99.90
23579;DHT22;11967;50.852;4.400;2023-12-07T03:29:28;7.50;99.90
23579;DHT22;11967;50.852;4.400;2023-12-07T03:31:53;7.50;99.90
23579;DHT22;11967;50.852;4.400;2023-12-07T03:34:19;7.50;99.90
23579;DHT22;11967;50.852;4.400;2023-12-07T03:36:48;7.50;99.90
23579;DHT22;11967;50.852;4.400;2023-12-07T03:39:15;7.40;99.90
23579;DHT22;11967;50.852;4.400;2023-12-07T03:41:41;7.40;99.90
23579;DHT22;11967;50.852;4.400;2023-12-07T03:44:07;7.40;99.90
23579;DHT22;11967;50.852;4.400;2023-12-07T03:46:33;7.30;99.90
23579;DHT22;11967;50.852;4.400;2023-12-07T03:48:58;7.30;99.90
23579;DHT22;11967;50.852;4.400;2023-12-07T03:51:26;7.30;99.90
23579;DHT22;11967;50.852;4.400;2023-12-07T03:53:51;7.30;99.90
23579;DHT22;11967;50.852;4.400;2023-12-07T03:56:30;7.40;99.90
23579;DHT22;11967;50.852;4.400;2023-12-07T03:58:56;7.40;99.90
23579;DHT22;11967;50.852;4.400;2023-12-07T04:01:27;7.30;99.90
23579;DHT22;11967;50.852;4.400;2023-12-07T04:03:53;7.40;99.90
23579;DHT22;11967;50.852;4.400;2023-12-07T04:06:20;7.40;99.90
23579;DHT22;11967;50.852;4.400;2023-12-07T04:08:46;7.40;99.90
23579;DHT22;11967;50.852;4.400;2023-12-07T04:11:12;7.50;99.90
23579;DHT22;11967;50.852;4.400;2023-12-07T04:13:38;7.40;99.90
23579;DHT22;11967;50.852;4.400;2023-12-07T04:16:04;7.40;99.90
23579;DHT22;11967;50.852;4.400;2023-12-07T04:18:31;7.30;99.90
23579;DHT22;11967;50.852;4.400;2023-12-07T04:20:56;7.50;99.90
23579;DHT22;11967;50.852;4.400;2023-12-07T04:23:22;7.50;99.90
23579;DHT22;11967;50.852;4.400;2023-12-07T04:25:49;7.40;99.90
23579;DHT22;11967;50.852;4.400;2023-12-07T04:28:15;7.50;99.90
23579;DHT22;11967;50.852;4.400;2023-12-07T04:30:40;7.40;99.90
23579;DHT22;11967;50.852;4.400;2023-12-07T04:33:07;7.50;99.90
23579;DHT22;11967;50.852;4.400;2023-12-07T04:35:34;7.50;99.90
23579;DHT22;11967;50.852;4.400;2023-12-07T04:37:59;7.50;99.90
23579;DHT22;11967;50.852;4.400;2023-12-07T04:40:25;7.50;99.90
23579;DHT22;11967;50.852;4.400;2023-12-07T04:42:51;7.40;99.90
23579;DHT22;11967;50.852;4.400;2023-12-07T04:45:17;7.30;99.90
23579;DHT22;11967;50.852;4.400;2023-12-07T04:47:42;7.40;99.90
23579;DHT22;11967;50.852;4.400;2023-12-07T04:50:08;7.50;99.90
23579;DHT22;11967;50.852;4.400;2023-12-07T04:52:35;7.40;99.90
23579;DHT22;11967;50.852;4.400;2023-12-07T04:55:01;7.50;99.90
23579;DHT22;11967;50.852;4.400;2023-12-07T04:57:27;7.40;99.90
23579;DHT22;11967;50.852;4.400;2023-12-07T04:59:52;7.40;99.90
23579;DHT22;11967;50.852;4.400;2023-12-07T05:02:18;7.50;99.90
23579;DHT22;11967;50.852;4.400;2023-12-07T05:04:44;7.50;99.90
23579;DHT22;11967;50.852;4.400;2023-12-07T05:07:11;7.40;99.90
23579;DHT22;11967;50.852;4.400;2023-12-07T05:09:38;7.40;99.90
23579;DHT22;11967;50.852;4.400;2023-12-07T05:12:04;7.40;99.90
23579;DHT22;11967;50.852;4.400;2023-12-07T05:14:33;7.40;99.90
23579;DHT22;11967;50.852;4.400;2023-12-07T05:17:00;7.40;99.90
23579;DHT22;11967;50.852;4.400;2023-12-07T05:19:26;7.50;99.90
23579;DHT22;11967;50.852;4.400;2023-12-07T05:21:52;7.40;99.90
23579;DHT22;11967;50.852;4.400;2023-12-07T05:24:18;7.40;99.90
23579;DHT22;11967;50.852;4.400;2023-12-07T05:26:44;7.40;99.90
23579;DHT22;11967;50.852;4.400;2023-12-07T05:29:14;7.50;99.90
23579;DHT22;11967;50.852;4.400;2023-12-07T05:31:40;7.40;99.90
23579;DHT22;11967;50.852;4.400;2023-12-07T05:34:09;7.30;99.90
23579;DHT22;11967;50.852;4.400;2023-12-07T05:36:35;7.30;99.90
23579;DHT22;11967;50.852;4.400;2023-12-07T05:39:01;7.30;99.90
23579;DHT22;11967;50.852;4.400;2023-12-07T05:41:26;7.40;99.90
23579;DHT22;11967;50.852;4.400;2023-12-07T05:43:52;7.30;99.90
23579;DHT22;11967;50.852;4.400;2023-12-07T05:46:19;7.50;99.90
23579;DHT22;11967;50.852;4.400;2023-12-07T05:48:45;7.50;99.90
23579;DHT22;11967;50.852;4.400;2023-12-07T05:51:15;7.50;99.90
23579;DHT22;11967;50.852;4.400;2023-12-07T05:53:42;7.40;99.90
23579;DHT22;11967;50.852;4.400;2023-12-07T05:56:08;7.30;99.90
23579;DHT22;11967;50.852;4.400;2023-12-07T05:58:34;7.40;99.90
23579;DHT22;11967;50.852;4.400;2023-12-07T06:01:00;7.30;99.90
23579;DHT22;11967;50.852;4.400;2023-12-07T06:03:27;7.30;99.90
23579;DHT22;11967;50.852;4.400;2023-12-07T06:05:53;7.20;99.90
23579;DHT22;11967;50.852;4.400;2023-12-07T06:08:19;7.20;99.90
23579;DHT22;11967;50.852;4.400;2023-12-07T06:10:44;7.30;99.90
23579;DHT22;11967;50.852;4.400;2023-12-07T06:13:10;7.30;99.90
23579;DHT22;11967;50.852;4.400;2023-12-07T06:15:36;7.50;99.90
23579;DHT22;11967;50.852;4.400;2023-12-07T06:18:02;7.40;99.90
23579;DHT22;11967;50.852;4.400;2023-12-07T06:20:28;7.40;99.90
23579;DHT22;11967;50.852;4.400;2023-12-07T06:22:54;7.40;99.90
23579;DHT22;11967;50.852;4.400;2023-12-07T06:25:20;7.40;99.90
23579;DHT22;11967;50.852;4.400;2023-12-07T06:27:46;7.40;99.90
23579;DHT22;11967;50.852;4.400;2023-12-07T06:30:11;7.50;99.90
23579;DHT22;11967;50.852;4.400;2023-12-07T06:32:37;7.50;99.90
23579;DHT22;11967;50.852;4.400;2023-12-07T06:35:03;7.50;99.90
23579;DHT22;11967;50.852;4.400;2023-12-07T06:37:30;7.40;99.90
23579;DHT22;11967;50.852;4.400;2023-12-07T06:39:55;7.40;99.90
23579;DHT22;11967;50.852;4.400;2023-12-07T06:42:21;7.40;99.90
23579;DHT22;11967;50.852;4.400;2023-12-07T06:44:47;7.50;99.90
23579;DHT22;11967;50.852;4.400;2023-12-07T06:47:15;7.40;99.90
23579;DHT22;11967;50.852;4.400;2023-12-07T06:49:41;7.40;99.90
23579;DHT22;11967;50.852;4.400;2023-12-07T06:52:07;7.40;99.90
23579;DHT22;11967;50.852;4.400;2023-12-07T06:54:33;7.50;99.90
23579;DHT22;11967;50.852;4.400;2023-12-07T06:56:59;7.50;99.90
23579;DHT22;11967;50.852;4.400;2023-12-07T06:59:25;7.50;99.90
23579;DHT22;11967;50.852;4.400;2023-12-07T07:01:50;7.60;99.90
23579;DHT22;11967;50.852;4.400;2023-12-07T07:04:16;7.60;99.90
23579;DHT22;11967;50.852;4.400;2023-12-07T07:06:42;7.50;99.90
23579;DHT22;11967;50.852;4.400;2023-12-07T07:09:07;7.50;99.90
23579;DHT22;11967;50.852;4.400;2023-12-07T07:11:33;7.50;99.90
23579;DHT22;11967;50.852;4.400;2023-12-07T07:14:00;7.60;99.90
23579;DHT22;11967;50.852;4.400;2023-12-07T07:16:25;7.60;99.90
23579;DHT22;11967;50.852;4.400;2023-12-07T07:18:51;7.60;99.90
23579;DHT22;11967;50.852;4.400;2023-12-07T07:21:17;7.60;99.90
23579;DHT22;11967;50.852;4.400;2023-12-07T07:23:42;7.60;99.90
23579;DHT22;11967;50.852;4.400;2023-12-07T07:26:09;7.70;99.90
23579;DHT22;11967;50.852;4.400;2023-12-07T07:28:38;7.70;99.90
23579;DHT22;11967;50.852;4.400;2023-12-07T07:31:03;7.70;99.90
23579;DHT22;11967;50.852;4.400;2023-12-07T07:33:29;7.70;99.90
23579;DHT22;11967;50.852;4.400;2023-12-07T07:35:55;7.70;99.90
23579;DHT22;11967;50.852;4.400;2023-12-07T07:38:20;7.70;99.90
23579;DHT22;11967;50.852;4.400;2023-12-07T07:40:46;7.70;99.90
23579;DHT22;11967;50.852;4.400;2023-12-07T07:43:14;7.70;99.90
23579;DHT22;11967;50.852;4.400;2023-12-07T07:45:39;7.70;99.90
23579;DHT22;11967;50.852;4.400;2023-12-07T07:48:08;7.60;99.90
23579;DHT22;11967;50.852;4.400;2023-12-07T07:50:34;7.60;99.90
23579;DHT22;11967;50.852;4.400;2023-12-07T07:53:03;7.60;99.90
23579;DHT22;11967;50.852;4.400;2023-12-07T07:55:29;7.60;99.90
23579;DHT22;11967;50.852;4.400;2023-12-07T07:57:58;7.80;99.90
23579;DHT22;11967;50.852;4.400;2023-12-07T08:00:23;8.00;99.90
23579;DHT22;11967;50.852;4.400;2023-12-07T08:02:51;8.10;99.90
23579;DHT22;11967;50.852;4.400;2023-12-07T08:05:17;8.00;99.90
23579;DHT22;11967;50.852;4.400;2023-12-07T08:07:43;8.00;99.90
23579;DHT22;11967;50.852;4.400;2023-12-07T08:10:09;8.00;99.90
23579;DHT22;11967;50.852;4.400;2023-12-07T08:12:34;8.00;99.90
23579;DHT22;11967;50.852;4.400;2023-12-07T08:15:00;8.00;99.90
23579;DHT22;11967;50.852;4.400;2023-12-07T08:17:26;7.90;99.90
23579;DHT22;11967;50.852;4.400;2023-12-07T08:19:52;7.80;99.90
23579;DHT22;11967;50.852;4.400;2023-12-07T08:22:18;7.80;99.90
23579;DHT22;11967;50.852;4.400;2023-12-07T08:24:44;7.70;99.90
23579;DHT22;11967;50.852;4.400;2023-12-07T08:27:10;7.70;99.90
23579;DHT22;11967;50.852;4.400;2023-12-07T08:29:36;7.80;99.90
23579;DHT22;11967;50.852;4.400;2023-12-07T08:32:02;7.70;99.90
23579;DHT22;11967;50.852;4.400;2023-12-07T08:34:28;7.70;99.90
23579;DHT22;11967;50.852;4.400;2023-12-07T08:36:53;7.70;99.90
23579;DHT22;11967;50.852;4.400;2023-12-07T08:39:19;7.80;99.90
23579;DHT22;11967;50.852;4.400;2023-12-07T08:41:45;7.70;99.90
23579;DHT22;11967;50.852;4.400;2023-12-07T08:44:10;7.70;99.90
23579;DHT22;11967;50.852;4.400;2023-12-07T08:46:36;7.70;99.90
23579;DHT22;11967;50.852;4.400;2023-12-07T08:49:02;7.70;99.90
23579;DHT22;11967;50.852;4.400;2023-12-07T08:51:28;7.90;99.90
23579;DHT22;11967;50.852;4.400;2023-12-07T08:53:56;7.90;99.90
23579;DHT22;11967;50.852;4.400;2023-12-07T08:56:22;7.90;99.90
23579;DHT22;11967;50.852;4.400;2023-12-07T08:58:47;8.00;99.90
23579;DHT22;11967;50.852;4.400;2023-12-07T09:01:13;8.00;99.90
23579;DHT22;11967;50.852;4.400;2023-12-07T09:03:38;8.10;99.90
23579;DHT22;11967;50.852;4.400;2023-12-07T09:06:04;7.90;99.90
23579;DHT22;11967;50.852;4.400;2023-12-07T09:08:31;7.90;99.90
23579;DHT22;11967;50.852;4.400;2023-12-07T09:10:57;8.00;99.90
23579;DHT22;11967;50.852;4.400;2023-12-07T09:13:22;8.00;99.90
23579;DHT22;11967;50.852;4.400;2023-12-07T09:15:48;7.90;99.90
23579;DHT22;11967;50.852;4.400;2023-12-07T09:18:14;7.90;99.90
23579;DHT22;11967;50.852;4.400;2023-12-07T09:20:40;8.00;99.90
23579;DHT22;11967;50.852;4.400;2023-12-07T09:23:12;8.00;99.90
23579;DHT22;11967;50.852;4.400;2023-12-07T09:25:38;8.10;99.90
23579;DHT22;11967;50.852;4.400;2023-12-07T09:28:04;8.00;99.90
23579;DHT22;11967;50.852;4.400;2023-12-07T09:30:30;8.10;99.90
23579;DHT22;11967;50.852;4.400;2023-12-07T09:32:59;8.10;99.90
23579;DHT22;11967;50.852;4.400;2023-12-07T09:35:24;8.10;99.90
23579;DHT22;11967;50.852;4.400;2023-12-07T09:37:50;8.20;99.90
23579;DHT22;11967;50.852;4.400;2023-12-07T09:40:16;8.20;99.90
23579;DHT22;11967;50.852;4.400;2023-12-07T09:42:43;8.30;99.90
23579;DHT22;11967;50.852;4.400;2023-12-07T09:45:09;8.40;99.90
23579;DHT22;11967;50.852;4.400;2023-12-07T09:47:37;8.50;99.90
23579;DHT22;11967;50.852;4.400;2023-12-07T09:50:03;8.50;99.90
23579;DHT22;11967;50.852;4.400;2023-12-07T09:52:29;8.60;99.90
23579;DHT22;11967;50.852;4.400;2023-12-07T09:54:56;8.80;99.90
23579;DHT22;11967;50.852;4.400;2023-12-07T09:57:23;9.00;99.90
23579;DHT22;11967;50.852;4.400;2023-12-07T09:59:48;9.00;99.90
23579;DHT22;11967;50.852;4.400;2023-12-07T10:02:14;9.20;99.90
23579;DHT22;11967;50.852;4.400;2023-12-07T10:04:40;9.40;99.90
23579;DHT22;11967;50.852;4.400;2023-12-07T10:07:05;9.60;99.90
23579;DHT22;11967;50.852;4.400;2023-12-07T10:09:41;9.60;99.90
23579;DHT22;11967;50.852;4.400;2023-12-07T10:12:08;9.70;99.90
23579;DHT22;11967;50.852;4.400;2023-12-07T10:14:33;9.70;99.90
23579;DHT22;11967;50.852;4.400;2023-12-07T10:16:59;9.60;99.90
23579;DHT22;11967;50.852;4.400;2023-12-07T10:19:26;9.70;99.90
23579;DHT22;11967;50.852;4.400;2023-12-07T10:21:53;9.60;99.90
23579;DHT22;11967;50.852;4.400;2023-12-07T10:24:23;9.70;99.90
23579;DHT22;11967;50.852;4.400;2023-12-07T10:26:51;9.80;99.90
23579;DHT22;11967;50.852;4.400;2023-12-07T10:29:20;9.90;99.90
23579;DHT22;11967;50.852;4.400;2023-12-07T10:31:45;10.10;99.90
23579;DHT22;11967;50.852;4.400;2023-12-07T10:34:12;10.10;99.90
23579;DHT22;11967;50.852;4.400;2023-12-07T10:36:38;10.10;99.90
23579;DHT22;11967;50.852;4.400;2023-12-07T10:39:04;10.20;99.90
23579;DHT22;11967;50.852;4.400;2023-12-07T10:41:34;10.30;99.90
23579;DHT22;11967;50.852;4.400;2023-12-07T10:44:01;10.30;99.90
23579;DHT22;11967;50.852;4.400;2023-12-07T10:46:29;10.30;99.90
23579;DHT22;11967;50.852;4.400;2023-12-07T10:49:04;10.50;99.90
23579;DHT22;11967;50.852;4.400;2023-12-07T10:54:04;10.50;99.90
23579;DHT22;11967;50.852;4.400;2023-12-07T10:56:39;10.40;99.90
23579;DHT22;11967;50.852;4.400;2023-12-07T10:59:12;10.40;99.90
23579;DHT22;11967;50.852;4.400;2023-12-07T11:01:42;10.20;99.90
23579;DHT22;11967;50.852;4.400;2023-12-07T11:04:13;10.30;99.90
23579;DHT22;11967;50.852;4.400;2023-12-07T11:06:44;10.30;99.90
23579;DHT22;11967;50.852;4.400;2023-12-07T11:09:27;10.30;99.90
23579;DHT22;11967;50.852;4.400;2023-12-07T11:12:01;10.10;99.90
23579;DHT22;11967;50.852;4.400;2023-12-07T11:14:28;10.20;99.90
23579;DHT22;11967;50.852;4.400;2023-12-07T11:16:56;10.40;99.90
23579;DHT22;11967;50.852;4.400;2023-12-07T11:22:02;10.40;99.90
23579;DHT22;11967;50.852;4.400;2023-12-07T11:24:28;10.40;99.90
23579;DHT22;11967;50.852;4.400;2023-12-07T11:26:54;10.20;99.90
23579;DHT22;11967;50.852;4.400;2023-12-07T11:29:21;10.30;99.90
23579;DHT22;11967;50.852;4.400;2023-12-07T11:31:47;10.40;99.90
23579;DHT22;11967;50.852;4.400;2023-12-07T11:34:13;10.50;99.90
23579;DHT22;11967;50.852;4.400;2023-12-07T11:36:39;10.50;99.90
23579;DHT22;11967;50.852;4.400;2023-12-07T11:41:43;10.50;99.90
23579;DHT22;11967;50.852;4.400;2023-12-07T11:44:10;10.50;99.90
23579;DHT22;11967;50.852;4.400;2023-12-07T11:46:38;10.40;99.90
23579;DHT22;11967;50.852;4.400;2023-12-07T11:49:03;10.40;99.90
23579;DHT22;11967;50.852;4.400;2023-12-07T11:51:30;10.50;99.90
23579;DHT22;11967;50.852;4.400;2023-12-07T11:53:56;10.50;99.90
23579;DHT22;11967;50.852;4.400;2023-12-07T11:56:22;10.40;99.90
23579;DHT22;11967;50.852;4.400;2023-12-07T11:58:48;10.20;99.90
23579;DHT22;11967;50.852;4.400;2023-12-07T12:01:15;10.20;99.90
23579;DHT22;11967;50.852;4.400;2023-12-07T12:03:42;10.10;99.90
23579;DHT22;11967;50.852;4.400;2023-12-07T12:06:08;10.10;99.90
23579;DHT22;11967;50.852;4.400;2023-12-07T12:08:36;10.10;99.90
23579;DHT22;11967;50.852;4.400;2023-12-07T12:11:02;10.00;99.90
23579;DHT22;11967;50.852;4.400;2023-12-07T12:13:29;9.90;99.90
23579;DHT22;11967;50.852;4.400;2023-12-07T12:15:58;10.00;99.90
23579;DHT22;11967;50.852;4.400;2023-12-07T12:18:24;10.10;99.90
23579;DHT22;11967;50.852;4.400;2023-12-07T12:20:51;10.00;99.90
23579;DHT22;11967;50.852;4.400;2023-12-07T12:23:17;10.00;99.90
23579;DHT22;11967;50.852;4.400;2023-12-07T12:25:44;10.00;99.90
23579;DHT22;11967;50.852;4.400;2023-12-07T12:28:10;10.00;99.90
23579;DHT22;11967;50.852;4.400;2023-12-07T12:30:37;10.20;99.90
23579;DHT22;11967;50.852;4.400;2023-12-07T12:33:03;10.20;99.90
23579;DHT22;11967;50.852;4.400;2023-12-07T12:35:29;10.20;99.90
23579;DHT22;11967;50.852;4.400;2023-12-07T12:37:55;10.20;99.90
23579;DHT22;11967;50.852;4.400;2023-12-07T12:40:22;10.20;99.90
23579;DHT22;11967;50.852;4.400;2023-12-07T12:42:50;10.10;99.90
23579;DHT22;11967;50.852;4.400;2023-12-07T12:45:17;10.10;99.90
23579;DHT22;11967;50.852;4.400;2023-12-07T12:47:44;10.10;99.90
23579;DHT22;11967;50.852;4.400;2023-12-07T12:50:34;10.10;99.90
23579;DHT22;11967;50.852;4.400;2023-12-07T12:53:02;10.10;99.90
23579;DHT22;11967;50.852;4.400;2023-12-07T12:55:35;10.00;99.90
23579;DHT22;11967;50.852;4.400;2023-12-07T12:58:01;10.00;99.90
23579;DHT22;11967;50.852;4.400;2023-12-07T13:00:29;10.00;99.90
23579;DHT22;11967;50.852;4.400;2023-12-07T13:02:55;9.90;99.90
23579;DHT22;11967;50.852;4.400;2023-12-07T13:05:21;10.00;99.90
23579;DHT22;11967;50.852;4.400;2023-12-07T13:07:46;9.90;99.90
23579;DHT22;11967;50.852;4.400;2023-12-07T13:10:16;9.90;99.90
23579;DHT22;11967;50.852;4.400;2023-12-07T13:12:41;9.90;99.90
23579;DHT22;11967;50.852;4.400;2023-12-07T13:15:09;9.80;99.90
23579;DHT22;11967;50.852;4.400;2023-12-07T13:17:35;9.80;99.90
23579;DHT22;11967;50.852;4.400;2023-12-07T13:20:01;9.70;99.90
23579;DHT22;11967;50.852;4.400;2023-12-07T13:22:26;9.70;99.90
23579;DHT22;11967;50.852;4.400;2023-12-07T13:24:52;9.70;99.90
23579;DHT22;11967;50.852;4.400;2023-12-07T13:27:18;9.70;99.90
23579;DHT22;11967;50.852;4.400;2023-12-07T13:29:43;9.80;99.90
23579;DHT22;11967;50.852;4.400;2023-12-07T13:32:10;9.70;99.90
23579;DHT22;11967;50.852;4.400;2023-12-07T13:34:36;9.70;99.90
23579;DHT22;11967;50.852;4.400;2023-12-07T13:37:02;9.70;99.90
23579;DHT22;11967;50.852;4.400;2023-12-07T13:39:27;9.70;99.90
23579;DHT22;11967;50.852;4.400;2023-12-07T13:41:55;9.60;99.90
23579;DHT22;11967;50.852;4.400;2023-12-07T13:44:20;9.50;99.90
23579;DHT22;11967;50.852;4.400;2023-12-07T13:46:46;9.50;99.90
23579;DHT22;11967;50.852;4.400;2023-12-07T13:49:12;9.50;99.90
23579;DHT22;11967;50.852;4.400;2023-12-07T13:51:39;9.50;99.90
23579;DHT22;11967;50.852;4.400;2023-12-07T13:54:05;9.60;99.90
23579;DHT22;11967;50.852;4.400;2023-12-07T13:56:34;9.80;99.90
23579;DHT22;11967;50.852;4.400;2023-12-07T13:59:00;9.80;99.90
23579;DHT22;11967;50.852;4.400;2023-12-07T14:01:26;9.70;99.90
23579;DHT22;11967;50.852;4.400;2023-12-07T14:03:51;9.70;99.90
23579;DHT22;11967;50.852;4.400;2023-12-07T14:06:24;9.60;99.90
23579;DHT22;11967;50.852;4.400;2023-12-07T14:08:50;9.60;99.90
23579;DHT22;11967;50.852;4.400;2023-12-07T14:11:17;9.80;99.90
23579;DHT22;11967;50.852;4.400;2023-12-07T14:13:43;9.80;99.90
23579;DHT22;11967;50.852;4.400;2023-12-07T14:16:12;9.80;99.90
23579;DHT22;11967;50.852;4.400;2023-12-07T14:18:37;9.80;99.90
23579;DHT22;11967;50.852;4.400;2023-12-07T14:21:03;9.90;99.90
23579;DHT22;11967;50.852;4.400;2023-12-07T14:23:29;10.10;99.90
23579;DHT22;11967;50.852;4.400;2023-12-07T14:25:55;10.00;99.90
23579;DHT22;11967;50.852;4.400;2023-12-07T14:28:24;9.90;99.90
23579;DHT22;11967;50.852;4.400;2023-12-07T14:30:50;10.00;99.90
23579;DHT22;11967;50.852;4.400;2023-12-07T14:33:21;10.00;99.90
23579;DHT22;11967;50.852;4.400;2023-12-07T14:35:47;10.10;99.90
23579;DHT22;11967;50.852;4.400;2023-12-07T14:38:14;9.90;99.90
23579;DHT22;11967;50.852;4.400;2023-12-07T14:40:40;9.90;99.90
23579;DHT22;11967;50.852;4.400;2023-12-07T14:43:05;9.80;99.90
23579;DHT22;11967;50.852;4.400;2023-12-07T14:45:31;9.80;99.90
23579;DHT22;11967;50.852;4.400;2023-12-07T14:47:57;9.80;99.90
23579;DHT22;11967;50.852;4.400;2023-12-07T14:50:23;9.80;99.90
23579;DHT22;11967;50.852;4.400;2023-12-07T14:52:49;9.70;99.90
23579;DHT22;11967;50.852;4.400;2023-12-07T14:55:15;9.80;99.90
23579;DHT22;11967;50.852;4.400;2023-12-07T14:57:41;9.80;99.90
23579;DHT22;11967;50.852;4.400;2023-12-07T15:00:06;9.80;99.90
23579;DHT22;11967;50.852;4.400;2023-12-07T15:02:32;9.80;99.90
23579;DHT22;11967;50.852;4.400;2023-12-07T15:04:58;9.80;99.90
23579;DHT22;11967;50.852;4.400;2023-12-07T15:07:24;9.80;99.90
23579;DHT22;11967;50.852;4.400;2023-12-07T15:09:49;9.80;99.90
23579;DHT22;11967;50.852;4.400;2023-12-07T15:12:17;9.80;99.90
23579;DHT22;11967;50.852;4.400;2023-12-07T15:14:44;9.80;99.90
23579;DHT22;11967;50.852;4.400;2023-12-07T15:17:11;9.80;99.90
23579;DHT22;11967;50.852;4.400;2023-12-07T15:19:37;9.90;99.90
23579;DHT22;11967;50.852;4.400;2023-12-07T15:22:03;9.90;99.90
23579;DHT22;11967;50.852;4.400;2023-12-07T15:24:30;9.90;99.90
23579;DHT22;11967;50.852;4.400;2023-12-07T15:26:55;9.90;99.90
23579;DHT22;11967;50.852;4.400;2023-12-07T15:29:21;9.90;99.90
23579;DHT22;11967;50.852;4.400;2023-12-07T15:31:47;9.80;99.90
23579;DHT22;11967;50.852;4.400;2023-12-07T15:34:12;9.90;99.90
23579;DHT22;11967;50.852;4.400;2023-12-07T15:36:38;9.80;99.90
23579;DHT22;11967;50.852;4.400;2023-12-07T15:39:04;9.90;99.90
23579;DHT22;11967;50.852;4.400;2023-12-07T15:41:29;9.90;99.90
23579;DHT22;11967;50.852;4.400;2023-12-07T15:43:55;10.00;99.90
23579;DHT22;11967;50.852;4.400;2023-12-07T15:46:21;9.90;99.90
23579;DHT22;11967;50.852;4.400;2023-12-07T15:48:47;9.90;99.90